Terminal Aerodrome Forecast
Issued by NWS St Louis, MO

Home | Current Version | Previous Version | Text Only | Print | Product List | Glossary On
Versions: 1 2 3 4 5 6 7 8 9 10 11 12 13 14 15 16 17 18
000
FTUS43 KLSX 190500
TAFCOU
TAF
KCOU 190520Z 1906/2006 VRB04KT P6SM SCT120
     FM191000 VRB04KT P6SM VCSH SCT040 BKN120
     FM191500 22009KT P6SM SCT030 BKN120
     FM192100 24011KT P6SM SCT040 BKN250
     FM200100 18005KT P6SM SCT250=

USA.gov is the U.S. government's official web portal to all federal, state and local government web resources and services.